sensor_id;sensor_type;location;lat;lon;timestamp;P1;durP1;ratioP1;P2;durP2;ratioP2
43118;SDS011;28729;49.838;8.650;2023-03-05T00:00:47;29.30;;;10.90;;
43118;SDS011;28729;49.838;8.650;2023-03-05T00:04:49;30.60;;;12.10;;
43118;SDS011;28729;49.838;8.650;2023-03-05T00:08:51;32.17;;;11.32;;
43118;SDS011;28729;49.838;8.650;2023-03-05T00:16:55;26.77;;;10.80;;
43118;SDS011;28729;49.838;8.650;2023-03-05T00:20:56;24.58;;;10.93;;
43118;SDS011;28729;49.838;8.650;2023-03-05T00:24:58;31.30;;;11.35;;
43118;SDS011;28729;49.838;8.650;2023-03-05T00:29:00;27.35;;;10.90;;
43118;SDS011;28729;49.838;8.650;2023-03-05T00:33:02;29.75;;;10.90;;
43118;SDS011;28729;49.838;8.650;2023-03-05T00:37:04;26.60;;;10.70;;
43118;SDS011;28729;49.838;8.650;2023-03-05T00:41:07;30.33;;;11.90;;
43118;SDS011;28729;49.838;8.650;2023-03-05T00:45:09;26.98;;;10.52;;
43118;SDS011;28729;49.838;8.650;2023-03-05T00:49:11;28.75;;;10.65;;
43118;SDS011;28729;49.838;8.650;2023-03-05T00:53:13;26.60;;;11.25;;
43118;SDS011;28729;49.838;8.650;2023-03-05T00:57:15;27.55;;;10.95;;
43118;SDS011;28729;49.838;8.650;2023-03-05T01:01:16;25.50;;;11.00;;
43118;SDS011;28729;49.838;8.650;2023-03-05T01:05:18;26.85;;;12.27;;
43118;SDS011;28729;49.838;8.650;2023-03-05T01:09:20;28.60;;;10.68;;
43118;SDS011;28729;49.838;8.650;2023-03-05T01:13:22;29.93;;;10.53;;
43118;SDS011;28729;49.838;8.650;2023-03-05T01:17:23;31.60;;;11.48;;
43118;SDS011;28729;49.838;8.650;2023-03-05T01:21:25;30.80;;;11.73;;
43118;SDS011;28729;49.838;8.650;2023-03-05T01:25:27;23.63;;;10.53;;
43118;SDS011;28729;49.838;8.650;2023-03-05T01:29:29;28.05;;;10.88;;
43118;SDS011;28729;49.838;8.650;2023-03-05T01:33:31;25.40;;;10.32;;
43118;SDS011;28729;49.838;8.650;2023-03-05T01:37:32;28.45;;;11.82;;
43118;SDS011;28729;49.838;8.650;2023-03-05T01:41:34;27.17;;;12.48;;
43118;SDS011;28729;49.838;8.650;2023-03-05T01:45:36;29.55;;;11.55;;
43118;SDS011;28729;49.838;8.650;2023-03-05T01:49:40;26.63;;;11.18;;
43118;SDS011;28729;49.838;8.650;2023-03-05T01:53:42;30.67;;;11.82;;
43118;SDS011;28729;49.838;8.650;2023-03-05T01:57:52;32.30;;;12.48;;
43118;SDS011;28729;49.838;8.650;2023-03-05T02:01:56;26.15;;;11.27;;
43118;SDS011;28729;49.838;8.650;2023-03-05T02:05:59;32.42;;;12.05;;
43118;SDS011;28729;49.838;8.650;2023-03-05T02:10:01;28.83;;;11.30;;
43118;SDS011;28729;49.838;8.650;2023-03-05T02:14:15;30.40;;;12.18;;
43118;SDS011;28729;49.838;8.650;2023-03-05T02:18:17;32.42;;;11.90;;
43118;SDS011;28729;49.838;8.650;2023-03-05T02:22:21;33.03;;;13.13;;
43118;SDS011;28729;49.838;8.650;2023-03-05T02:26:25;28.83;;;10.45;;
43118;SDS011;28729;49.838;8.650;2023-03-05T02:30:27;28.95;;;11.73;;
43118;SDS011;28729;49.838;8.650;2023-03-05T02:34:29;25.63;;;10.48;;
43118;SDS011;28729;49.838;8.650;2023-03-05T02:38:31;32.43;;;12.20;;
43118;SDS011;28729;49.838;8.650;2023-03-05T02:42:33;31.47;;;11.33;;
43118;SDS011;28729;49.838;8.650;2023-03-05T02:46:35;25.63;;;11.35;;
43118;SDS011;28729;49.838;8.650;2023-03-05T02:50:38;27.90;;;10.90;;
43118;SDS011;28729;49.838;8.650;2023-03-05T02:54:41;30.27;;;11.63;;
43118;SDS011;28729;49.838;8.650;2023-03-05T02:58:43;29.75;;;11.50;;
43118;SDS011;28729;49.838;8.650;2023-03-05T03:02:45;31.67;;;11.65;;
43118;SDS011;28729;49.838;8.650;2023-03-05T03:06:47;32.65;;;11.45;;
43118;SDS011;28729;49.838;8.650;2023-03-05T03:10:48;31.48;;;12.05;;
43118;SDS011;28729;49.838;8.650;2023-03-05T03:14:50;31.15;;;11.52;;
43118;SDS011;28729;49.838;8.650;2023-03-05T03:18:51;28.83;;;11.95;;
43118;SDS011;28729;49.838;8.650;2023-03-05T03:22:53;28.77;;;11.80;;
43118;SDS011;28729;49.838;8.650;2023-03-05T03:26:55;28.30;;;12.73;;
43118;SDS011;28729;49.838;8.650;2023-03-05T03:30:57;21.98;;;8.63;;
43118;SDS011;28729;49.838;8.650;2023-03-05T03:34:58;24.50;;;10.63;;
43118;SDS011;28729;49.838;8.650;2023-03-05T03:39:00;22.60;;;10.47;;
43118;SDS011;28729;49.838;8.650;2023-03-05T03:43:02;32.20;;;10.90;;
43118;SDS011;28729;49.838;8.650;2023-03-05T03:47:04;28.67;;;10.50;;
43118;SDS011;28729;49.838;8.650;2023-03-05T03:51:06;26.48;;;10.15;;
43118;SDS011;28729;49.838;8.650;2023-03-05T03:55:08;25.08;;;10.23;;
43118;SDS011;28729;49.838;8.650;2023-03-05T03:59:10;19.60;;;8.15;;
43118;SDS011;28729;49.838;8.650;2023-03-05T04:03:12;24.48;;;10.02;;
43118;SDS011;28729;49.838;8.650;2023-03-05T04:07:14;21.35;;;9.45;;
43118;SDS011;28729;49.838;8.650;2023-03-05T04:11:15;21.20;;;8.68;;
43118;SDS011;28729;49.838;8.650;2023-03-05T04:15:19;24.40;;;8.75;;
43118;SDS011;28729;49.838;8.650;2023-03-05T04:19:21;20.85;;;9.48;;
43118;SDS011;28729;49.838;8.650;2023-03-05T04:23:23;27.58;;;9.18;;
43118;SDS011;28729;49.838;8.650;2023-03-05T04:27:24;32.40;;;10.15;;
43118;SDS011;28729;49.838;8.650;2023-03-05T04:31:26;24.35;;;10.10;;
43118;SDS011;28729;49.838;8.650;2023-03-05T04:35:27;21.98;;;9.27;;
43118;SDS011;28729;49.838;8.650;2023-03-05T04:39:29;25.17;;;8.82;;
43118;SDS011;28729;49.838;8.650;2023-03-05T04:43:31;22.80;;;9.85;;
43118;SDS011;28729;49.838;8.650;2023-03-05T04:47:32;22.23;;;9.32;;
43118;SDS011;28729;49.838;8.650;2023-03-05T04:51:35;24.10;;;9.60;;
43118;SDS011;28729;49.838;8.650;2023-03-05T04:55:36;19.85;;;9.52;;
43118;SDS011;28729;49.838;8.650;2023-03-05T04:59:38;21.45;;;9.52;;
43118;SDS011;28729;49.838;8.650;2023-03-05T05:03:39;19.40;;;8.00;;
43118;SDS011;28729;49.838;8.650;2023-03-05T05:07:41;28.73;;;10.60;;
43118;SDS011;28729;49.838;8.650;2023-03-05T05:11:42;22.60;;;8.50;;
43118;SDS011;28729;49.838;8.650;2023-03-05T05:15:44;24.45;;;9.40;;
43118;SDS011;28729;49.838;8.650;2023-03-05T05:19:46;22.73;;;8.77;;
43118;SDS011;28729;49.838;8.650;2023-03-05T05:23:47;24.55;;;9.07;;
43118;SDS011;28729;49.838;8.650;2023-03-05T05:27:49;19.40;;;9.32;;
43118;SDS011;28729;49.838;8.650;2023-03-05T05:31:50;19.77;;;8.38;;
43118;SDS011;28729;49.838;8.650;2023-03-05T05:35:54;24.98;;;8.55;;
43118;SDS011;28729;49.838;8.650;2023-03-05T05:39:56;17.23;;;7.72;;
43118;SDS011;28729;49.838;8.650;2023-03-05T05:43:57;22.92;;;9.00;;
43118;SDS011;28729;49.838;8.650;2023-03-05T05:47:59;18.95;;;8.15;;
43118;SDS011;28729;49.838;8.650;2023-03-05T05:52:01;23.83;;;8.53;;
43118;SDS011;28729;49.838;8.650;2023-03-05T05:56:03;22.42;;;9.43;;
43118;SDS011;28729;49.838;8.650;2023-03-05T06:00:07;25.45;;;10.32;;
43118;SDS011;28729;49.838;8.650;2023-03-05T06:04:14;24.92;;;10.95;;
43118;SDS011;28729;49.838;8.650;2023-03-05T06:08:16;29.20;;;11.02;;
43118;SDS011;28729;49.838;8.650;2023-03-05T06:12:18;29.77;;;10.20;;
43118;SDS011;28729;49.838;8.650;2023-03-05T06:16:21;27.92;;;10.57;;
43118;SDS011;28729;49.838;8.650;2023-03-05T06:20:24;27.00;;;10.55;;
43118;SDS011;28729;49.838;8.650;2023-03-05T06:24:26;26.60;;;10.77;;
43118;SDS011;28729;49.838;8.650;2023-03-05T06:28:28;26.40;;;11.93;;
43118;SDS011;28729;49.838;8.650;2023-03-05T06:32:30;27.77;;;11.80;;
43118;SDS011;28729;49.838;8.650;2023-03-05T06:36:32;32.38;;;12.18;;
43118;SDS011;28729;49.838;8.650;2023-03-05T06:40:34;32.22;;;11.43;;
43118;SDS011;28729;49.838;8.650;2023-03-05T06:44:39;31.17;;;11.55;;
43118;SDS011;28729;49.838;8.650;2023-03-05T06:48:41;28.52;;;13.02;;
43118;SDS011;28729;49.838;8.650;2023-03-05T06:52:43;29.93;;;12.17;;
43118;SDS011;28729;49.838;8.650;2023-03-05T06:56:45;29.83;;;12.43;;
43118;SDS011;28729;49.838;8.650;2023-03-05T07:00:47;27.08;;;12.15;;
43118;SDS011;28729;49.838;8.650;2023-03-05T07:04:49;32.65;;;11.63;;
43118;SDS011;28729;49.838;8.650;2023-03-05T07:08:50;22.15;;;11.20;;
43118;SDS011;28729;49.838;8.650;2023-03-05T07:12:56;25.05;;;11.55;;
43118;SDS011;28729;49.838;8.650;2023-03-05T07:16:57;26.67;;;11.88;;
43118;SDS011;28729;49.838;8.650;2023-03-05T07:21:02;28.58;;;12.63;;
43118;SDS011;28729;49.838;8.650;2023-03-05T07:25:05;24.25;;;11.15;;
43118;SDS011;28729;49.838;8.650;2023-03-05T07:29:07;22.35;;;9.02;;
43118;SDS011;28729;49.838;8.650;2023-03-05T07:33:09;25.40;;;10.30;;
43118;SDS011;28729;49.838;8.650;2023-03-05T07:37:12;30.88;;;12.02;;
43118;SDS011;28729;49.838;8.650;2023-03-05T07:41:16;29.48;;;11.05;;
43118;SDS011;28729;49.838;8.650;2023-03-05T07:45:23;31.95;;;12.68;;
43118;SDS011;28729;49.838;8.650;2023-03-05T07:49:25;28.45;;;12.13;;
43118;SDS011;28729;49.838;8.650;2023-03-05T07:53:26;30.45;;;11.77;;
43118;SDS011;28729;49.838;8.650;2023-03-05T07:57:28;25.70;;;10.05;;
43118;SDS011;28729;49.838;8.650;2023-03-05T08:01:30;20.88;;;9.30;;
43118;SDS011;28729;49.838;8.650;2023-03-05T08:05:32;28.90;;;11.30;;
43118;SDS011;28729;49.838;8.650;2023-03-05T08:09:33;24.92;;;10.70;;
43118;SDS011;28729;49.838;8.650;2023-03-05T08:13:35;26.87;;;11.17;;
43118;SDS011;28729;49.838;8.650;2023-03-05T08:17:37;21.20;;;9.20;;
43118;SDS011;28729;49.838;8.650;2023-03-05T08:21:41;20.13;;;9.52;;
43118;SDS011;28729;49.838;8.650;2023-03-05T08:25:43;22.85;;;9.05;;
43118;SDS011;28729;49.838;8.650;2023-03-05T08:29:45;19.55;;;7.93;;
43118;SDS011;28729;49.838;8.650;2023-03-05T08:33:47;21.57;;;9.20;;
43118;SDS011;28729;49.838;8.650;2023-03-05T08:37:50;22.02;;;8.07;;
43118;SDS011;28729;49.838;8.650;2023-03-05T08:41:52;19.27;;;7.70;;
43118;SDS011;28729;49.838;8.650;2023-03-05T08:45:54;18.73;;;6.50;;
43118;SDS011;28729;49.838;8.650;2023-03-05T08:49:56;18.95;;;6.72;;
43118;SDS011;28729;49.838;8.650;2023-03-05T08:53:58;17.17;;;7.20;;
43118;SDS011;28729;49.838;8.650;2023-03-05T08:58:02;17.27;;;6.97;;
43118;SDS011;28729;49.838;8.650;2023-03-05T09:02:04;13.53;;;5.10;;
43118;SDS011;28729;49.838;8.650;2023-03-05T09:06:07;16.80;;;5.93;;
43118;SDS011;28729;49.838;8.650;2023-03-05T09:10:09;15.02;;;6.10;;
43118;SDS011;28729;49.838;8.650;2023-03-05T09:14:13;15.07;;;6.78;;
43118;SDS011;28729;49.838;8.650;2023-03-05T09:18:15;11.25;;;5.68;;
43118;SDS011;28729;49.838;8.650;2023-03-05T09:22:17;13.57;;;5.90;;
43118;SDS011;28729;49.838;8.650;2023-03-05T09:26:18;12.73;;;5.07;;
43118;SDS011;28729;49.838;8.650;2023-03-05T09:30:20;15.23;;;5.40;;
43118;SDS011;28729;49.838;8.650;2023-03-05T09:34:22;12.75;;;4.47;;
43118;SDS011;28729;49.838;8.650;2023-03-05T09:38:24;11.85;;;5.68;;
43118;SDS011;28729;49.838;8.650;2023-03-05T09:46:48;12.90;;;5.00;;
43118;SDS011;28729;49.838;8.650;2023-03-05T09:51:19;11.38;;;5.03;;
43118;SDS011;28729;49.838;8.650;2023-03-05T09:55:38;12.27;;;4.65;;
43118;SDS011;28729;49.838;8.650;2023-03-05T09:59:49;12.98;;;5.13;;
43118;SDS011;28729;49.838;8.650;2023-03-05T10:03:56;9.45;;;4.78;;
43118;SDS011;28729;49.838;8.650;2023-03-05T10:08:02;11.43;;;4.32;;
43118;SDS011;28729;49.838;8.650;2023-03-05T10:12:13;6.70;;;3.40;;
43118;SDS011;28729;49.838;8.650;2023-03-05T10:25:13;10.65;;;4.65;;
43118;SDS011;28729;49.838;8.650;2023-03-05T10:30:25;10.95;;;4.05;;
43118;SDS011;28729;49.838;8.650;2023-03-05T10:43:17;8.02;;;4.00;;
43118;SDS011;28729;49.838;8.650;2023-03-05T10:51:56;8.73;;;4.05;;
43118;SDS011;28729;49.838;8.650;2023-03-05T10:56:08;10.10;;;3.72;;
43118;SDS011;28729;49.838;8.650;2023-03-05T11:00:19;8.55;;;4.40;;
43118;SDS011;28729;49.838;8.650;2023-03-05T11:04:25;6.57;;;3.35;;
43118;SDS011;28729;49.838;8.650;2023-03-05T11:08:34;8.32;;;3.45;;
43118;SDS011;28729;49.838;8.650;2023-03-05T11:12:37;10.13;;;4.45;;
43118;SDS011;28729;49.838;8.650;2023-03-05T11:16:45;9.15;;;3.13;;
43118;SDS011;28729;49.838;8.650;2023-03-05T11:20:48;5.72;;;2.88;;
43118;SDS011;28729;49.838;8.650;2023-03-05T11:25:49;6.90;;;2.87;;
43118;SDS011;28729;49.838;8.650;2023-03-05T11:29:25;6.18;;;2.60;;
43118;SDS011;28729;49.838;8.650;2023-03-05T11:33:31;6.75;;;2.90;;
43118;SDS011;28729;49.838;8.650;2023-03-05T11:37:32;5.38;;;1.98;;
43118;SDS011;28729;49.838;8.650;2023-03-05T11:41:38;7.13;;;2.40;;
43118;SDS011;28729;49.838;8.650;2023-03-05T11:45:46;7.20;;;2.70;;
43118;SDS011;28729;49.838;8.650;2023-03-05T11:49:53;4.93;;;2.28;;
43118;SDS011;28729;49.838;8.650;2023-03-05T11:54:04;5.80;;;2.35;;
43118;SDS011;28729;49.838;8.650;2023-03-05T12:02:40;9.63;;;2.78;;
43118;SDS011;28729;49.838;8.650;2023-03-05T12:06:43;6.00;;;1.90;;
43118;SDS011;28729;49.838;8.650;2023-03-05T12:10:48;9.80;;;2.75;;
43118;SDS011;28729;49.838;8.650;2023-03-05T12:23:20;7.53;;;3.22;;
43118;SDS011;28729;49.838;8.650;2023-03-05T12:27:33;8.38;;;3.35;;
43118;SDS011;28729;49.838;8.650;2023-03-05T12:31:37;8.23;;;3.78;;
43118;SDS011;28729;49.838;8.650;2023-03-05T12:52:20;8.90;;;3.33;;
43118;SDS011;28729;49.838;8.650;2023-03-05T12:56:25;9.35;;;2.88;;
43118;SDS011;28729;49.838;8.650;2023-03-05T13:00:39;6.13;;;2.30;;
43118;SDS011;28729;49.838;8.650;2023-03-05T13:04:44;7.03;;;2.35;;
43118;SDS011;28729;49.838;8.650;2023-03-05T13:08:54;8.70;;;3.33;;
43118;SDS011;28729;49.838;8.650;2023-03-05T13:12:56;7.68;;;3.10;;
43118;SDS011;28729;49.838;8.650;2023-03-05T13:16:59;8.27;;;3.13;;
43118;SDS011;28729;49.838;8.650;2023-03-05T13:21:02;9.90;;;3.42;;
43118;SDS011;28729;49.838;8.650;2023-03-05T13:25:14;8.25;;;3.55;;
43118;SDS011;28729;49.838;8.650;2023-03-05T13:29:21;7.82;;;3.10;;
43118;SDS011;28729;49.838;8.650;2023-03-05T13:33:33;8.70;;;2.97;;
43118;SDS011;28729;49.838;8.650;2023-03-05T13:37:36;6.72;;;2.53;;
43118;SDS011;28729;49.838;8.650;2023-03-05T13:41:38;4.55;;;2.58;;
43118;SDS011;28729;49.838;8.650;2023-03-05T13:45:40;8.43;;;2.63;;
43118;SDS011;28729;49.838;8.650;2023-03-05T13:49:44;7.18;;;2.53;;
43118;SDS011;28729;49.838;8.650;2023-03-05T13:53:47;5.13;;;2.30;;
43118;SDS011;28729;49.838;8.650;2023-03-05T13:57:51;4.68;;;2.40;;
43118;SDS011;28729;49.838;8.650;2023-03-05T14:01:56;6.32;;;2.03;;
43118;SDS011;28729;49.838;8.650;2023-03-05T14:05:59;7.03;;;2.85;;
43118;SDS011;28729;49.838;8.650;2023-03-05T14:14:44;6.28;;;2.42;;
43118;SDS011;28729;49.838;8.650;2023-03-05T14:18:53;6.47;;;2.40;;
43118;SDS011;28729;49.838;8.650;2023-03-05T14:22:57;5.20;;;2.42;;
43118;SDS011;28729;49.838;8.650;2023-03-05T14:27:05;4.90;;;2.35;;
43118;SDS011;28729;49.838;8.650;2023-03-05T14:31:14;5.43;;;2.45;;
43118;SDS011;28729;49.838;8.650;2023-03-05T14:35:18;7.50;;;2.10;;
43118;SDS011;28729;49.838;8.650;2023-03-05T14:39:29;4.88;;;1.80;;
43118;SDS011;28729;49.838;8.650;2023-03-05T14:47:48;4.50;;;1.55;;
43118;SDS011;28729;49.838;8.650;2023-03-05T14:51:51;5.25;;;1.67;;
43118;SDS011;28729;49.838;8.650;2023-03-05T14:55:54;6.35;;;2.03;;
43118;SDS011;28729;49.838;8.650;2023-03-05T14:59:57;4.20;;;1.75;;
43118;SDS011;28729;49.838;8.650;2023-03-05T15:03:58;4.40;;;2.17;;
43118;SDS011;28729;49.838;8.650;2023-03-05T15:08:01;5.50;;;2.05;;
43118;SDS011;28729;49.838;8.650;2023-03-05T15:12:03;7.50;;;2.28;;
43118;SDS011;28729;49.838;8.650;2023-03-05T15:16:05;7.22;;;2.53;;
43118;SDS011;28729;49.838;8.650;2023-03-05T15:20:09;7.20;;;1.90;;
43118;SDS011;28729;49.838;8.650;2023-03-05T15:24:15;5.45;;;2.30;;
43118;SDS011;28729;49.838;8.650;2023-03-05T15:28:17;4.72;;;2.30;;
43118;SDS011;28729;49.838;8.650;2023-03-05T15:32:18;6.15;;;2.83;;
43118;SDS011;28729;49.838;8.650;2023-03-05T15:36:20;6.38;;;2.47;;
43118;SDS011;28729;49.838;8.650;2023-03-05T15:40:22;8.00;;;2.95;;
43118;SDS011;28729;49.838;8.650;2023-03-05T15:44:24;9.32;;;3.10;;
43118;SDS011;28729;49.838;8.650;2023-03-05T15:48:26;8.98;;;2.67;;
43118;SDS011;28729;49.838;8.650;2023-03-05T15:52:27;9.90;;;3.33;;
43118;SDS011;28729;49.838;8.650;2023-03-05T15:56:29;7.13;;;2.70;;
43118;SDS011;28729;49.838;8.650;2023-03-05T16:00:31;6.90;;;2.83;;
43118;SDS011;28729;49.838;8.650;2023-03-05T16:04:37;7.50;;;3.50;;
43118;SDS011;28729;49.838;8.650;2023-03-05T16:08:39;8.10;;;3.83;;
43118;SDS011;28729;49.838;8.650;2023-03-05T16:12:44;7.28;;;3.70;;
43118;SDS011;28729;49.838;8.650;2023-03-05T16:16:49;8.90;;;3.50;;
43118;SDS011;28729;49.838;8.650;2023-03-05T16:20:53;11.20;;;4.05;;
43118;SDS011;28729;49.838;8.650;2023-03-05T16:24:55;9.57;;;3.87;;
43118;SDS011;28729;49.838;8.650;2023-03-05T16:28:58;10.30;;;4.15;;
43118;SDS011;28729;49.838;8.650;2023-03-05T16:32:59;9.18;;;4.20;;
43118;SDS011;28729;49.838;8.650;2023-03-05T16:37:01;13.48;;;5.60;;
43118;SDS011;28729;49.838;8.650;2023-03-05T16:45:36;8.57;;;4.10;;
43118;SDS011;28729;49.838;8.650;2023-03-05T16:49:38;11.43;;;4.80;;
43118;SDS011;28729;49.838;8.650;2023-03-05T16:53:40;9.90;;;4.57;;
43118;SDS011;28729;49.838;8.650;2023-03-05T16:57:43;11.63;;;4.90;;
43118;SDS011;28729;49.838;8.650;2023-03-05T17:01:44;10.63;;;4.50;;
43118;SDS011;28729;49.838;8.650;2023-03-05T17:05:46;15.88;;;5.40;;
43118;SDS011;28729;49.838;8.650;2023-03-05T17:09:47;13.40;;;5.47;;
43118;SDS011;28729;49.838;8.650;2023-03-05T17:17:52;9.80;;;3.65;;
43118;SDS011;28729;49.838;8.650;2023-03-05T17:21:53;10.07;;;4.35;;
43118;SDS011;28729;49.838;8.650;2023-03-05T17:25:55;11.18;;;4.50;;
43118;SDS011;28729;49.838;8.650;2023-03-05T17:29:58;11.15;;;3.25;;
43118;SDS011;28729;49.838;8.650;2023-03-05T17:34:00;8.00;;;3.60;;
43118;SDS011;28729;49.838;8.650;2023-03-05T17:38:06;7.95;;;3.20;;
43118;SDS011;28729;49.838;8.650;2023-03-05T17:42:08;8.57;;;3.83;;
43118;SDS011;28729;49.838;8.650;2023-03-05T17:46:11;8.20;;;3.28;;
43118;SDS011;28729;49.838;8.650;2023-03-05T17:50:14;8.00;;;3.20;;
43118;SDS011;28729;49.838;8.650;2023-03-05T17:54:15;8.68;;;4.65;;
43118;SDS011;28729;49.838;8.650;2023-03-05T17:58:17;9.07;;;3.92;;
43118;SDS011;28729;49.838;8.650;2023-03-05T18:02:19;6.33;;;4.23;;
43118;SDS011;28729;49.838;8.650;2023-03-05T18:06:20;10.25;;;4.63;;
43118;SDS011;28729;49.838;8.650;2023-03-05T18:10:23;9.05;;;4.10;;
43118;SDS011;28729;49.838;8.650;2023-03-05T18:14:26;9.90;;;4.65;;
43118;SDS011;28729;49.838;8.650;2023-03-05T18:18:27;10.63;;;4.13;;
43118;SDS011;28729;49.838;8.650;2023-03-05T18:22:29;12.73;;;5.10;;
43118;SDS011;28729;49.838;8.650;2023-03-05T18:26:31;11.57;;;4.40;;
43118;SDS011;28729;49.838;8.650;2023-03-05T18:30:33;11.07;;;4.45;;
43118;SDS011;28729;49.838;8.650;2023-03-05T18:34:35;7.00;;;3.30;;
43118;SDS011;28729;49.838;8.650;2023-03-05T18:38:37;17.33;;;6.15;;
43118;SDS011;28729;49.838;8.650;2023-03-05T18:42:39;15.02;;;6.85;;
43118;SDS011;28729;49.838;8.650;2023-03-05T18:46:41;14.43;;;6.70;;
43118;SDS011;28729;49.838;8.650;2023-03-05T18:50:43;14.20;;;6.78;;
43118;SDS011;28729;49.838;8.650;2023-03-05T18:54:45;14.52;;;6.20;;
43118;SDS011;28729;49.838;8.650;2023-03-05T18:58:47;13.68;;;5.75;;
43118;SDS011;28729;49.838;8.650;2023-03-05T19:02:48;14.40;;;6.60;;
43118;SDS011;28729;49.838;8.650;2023-03-05T19:06:50;14.63;;;5.88;;
43118;SDS011;28729;49.838;8.650;2023-03-05T19:10:51;13.93;;;5.90;;
43118;SDS011;28729;49.838;8.650;2023-03-05T19:14:53;10.30;;;5.38;;
43118;SDS011;28729;49.838;8.650;2023-03-05T19:23:03;14.10;;;6.88;;
43118;SDS011;28729;49.838;8.650;2023-03-05T19:27:05;14.60;;;6.38;;
43118;SDS011;28729;49.838;8.650;2023-03-05T19:31:14;14.15;;;5.93;;
43118;SDS011;28729;49.838;8.650;2023-03-05T19:35:16;10.80;;;5.68;;
43118;SDS011;28729;49.838;8.650;2023-03-05T19:39:19;20.40;;;9.57;;
43118;SDS011;28729;49.838;8.650;2023-03-05T19:43:21;14.70;;;6.43;;
43118;SDS011;28729;49.838;8.650;2023-03-05T19:47:22;16.35;;;7.13;;
43118;SDS011;28729;49.838;8.650;2023-03-05T19:51:26;16.55;;;7.18;;
43118;SDS011;28729;49.838;8.650;2023-03-05T19:55:27;16.65;;;6.32;;
43118;SDS011;28729;49.838;8.650;2023-03-05T19:59:29;12.30;;;5.93;;
43118;SDS011;28729;49.838;8.650;2023-03-05T20:03:31;18.63;;;6.43;;
43118;SDS011;28729;49.838;8.650;2023-03-05T20:07:32;11.80;;;5.68;;
43118;SDS011;28729;49.838;8.650;2023-03-05T20:11:34;12.25;;;5.43;;
43118;SDS011;28729;49.838;8.650;2023-03-05T20:15:36;12.35;;;5.97;;
43118;SDS011;28729;49.838;8.650;2023-03-05T20:19:37;12.32;;;5.65;;
43118;SDS011;28729;49.838;8.650;2023-03-05T20:23:39;11.35;;;5.43;;
43118;SDS011;28729;49.838;8.650;2023-03-05T20:27:41;12.90;;;5.90;;
43118;SDS011;28729;49.838;8.650;2023-03-05T20:31:43;16.50;;;5.95;;
43118;SDS011;28729;49.838;8.650;2023-03-05T20:35:45;7.90;;;3.93;;
43118;SDS011;28729;49.838;8.650;2023-03-05T20:39:47;13.27;;;5.35;;
43118;SDS011;28729;49.838;8.650;2023-03-05T20:43:51;12.90;;;5.47;;
43118;SDS011;28729;49.838;8.650;2023-03-05T20:47:52;10.48;;;5.35;;
43118;SDS011;28729;49.838;8.650;2023-03-05T20:51:54;10.90;;;6.13;;
43118;SDS011;28729;49.838;8.650;2023-03-05T20:55:55;10.55;;;5.03;;
43118;SDS011;28729;49.838;8.650;2023-03-05T20:59:57;10.32;;;4.78;;
43118;SDS011;28729;49.838;8.650;2023-03-05T21:04:00;10.20;;;4.68;;
43118;SDS011;28729;49.838;8.650;2023-03-05T21:12:05;9.15;;;4.57;;
43118;SDS011;28729;49.838;8.650;2023-03-05T21:16:10;9.40;;;5.03;;
43118;SDS011;28729;49.838;8.650;2023-03-05T21:20:16;9.55;;;4.95;;
43118;SDS011;28729;49.838;8.650;2023-03-05T21:24:20;10.70;;;5.65;;
43118;SDS011;28729;49.838;8.650;2023-03-05T21:28:24;10.80;;;4.88;;
43118;SDS011;28729;49.838;8.650;2023-03-05T21:32:25;9.38;;;4.53;;
43118;SDS011;28729;49.838;8.650;2023-03-05T21:36:27;11.45;;;4.72;;
43118;SDS011;28729;49.838;8.650;2023-03-05T21:40:29;10.40;;;4.47;;
43118;SDS011;28729;49.838;8.650;2023-03-05T21:44:31;8.63;;;4.43;;
43118;SDS011;28729;49.838;8.650;2023-03-05T21:48:33;11.30;;;5.28;;
43118;SDS011;28729;49.838;8.650;2023-03-05T21:52:34;8.85;;;4.72;;
43118;SDS011;28729;49.838;8.650;2023-03-05T21:56:36;6.90;;;3.97;;
43118;SDS011;28729;49.838;8.650;2023-03-05T22:00:38;13.13;;;5.47;;
43118;SDS011;28729;49.838;8.650;2023-03-05T22:04:39;9.75;;;4.53;;
43118;SDS011;28729;49.838;8.650;2023-03-05T22:08:41;12.68;;;4.70;;
43118;SDS011;28729;49.838;8.650;2023-03-05T22:12:48;7.97;;;4.13;;
43118;SDS011;28729;49.838;8.650;2023-03-05T22:17:12;10.50;;;4.97;;
43118;SDS011;28729;49.838;8.650;2023-03-05T22:21:19;9.30;;;4.75;;
43118;SDS011;28729;49.838;8.650;2023-03-05T22:25:22;8.35;;;4.45;;
43118;SDS011;28729;49.838;8.650;2023-03-05T22:29:24;11.27;;;5.18;;
43118;SDS011;28729;49.838;8.650;2023-03-05T22:37:29;9.38;;;4.43;;
43118;SDS011;28729;49.838;8.650;2023-03-05T22:41:31;12.93;;;4.65;;
43118;SDS011;28729;49.838;8.650;2023-03-05T22:45:33;8.93;;;4.47;;
43118;SDS011;28729;49.838;8.650;2023-03-05T22:49:34;9.48;;;4.10;;
43118;SDS011;28729;49.838;8.650;2023-03-05T22:53:36;8.52;;;4.25;;
43118;SDS011;28729;49.838;8.650;2023-03-05T22:57:38;10.73;;;4.57;;
43118;SDS011;28729;49.838;8.650;2023-03-05T23:01:40;8.27;;;3.80;;
43118;SDS011;28729;49.838;8.650;2023-03-05T23:05:42;9.15;;;4.10;;
43118;SDS011;28729;49.838;8.650;2023-03-05T23:09:44;7.43;;;4.20;;
43118;SDS011;28729;49.838;8.650;2023-03-05T23:13:51;10.25;;;4.07;;
43118;SDS011;28729;49.838;8.650;2023-03-05T23:17:53;7.88;;;4.18;;
43118;SDS011;28729;49.838;8.650;2023-03-05T23:21:55;8.88;;;3.97;;
43118;SDS011;28729;49.838;8.650;2023-03-05T23:25:56;8.98;;;4.85;;
43118;SDS011;28729;49.838;8.650;2023-03-05T23:30:00;9.77;;;4.50;;
43118;SDS011;28729;49.838;8.650;2023-03-05T23:34:17;9.07;;;4.43;;
43118;SDS011;28729;49.838;8.650;2023-03-05T23:38:19;13.93;;;4.53;;
43118;SDS011;28729;49.838;8.650;2023-03-05T23:42:21;8.30;;;4.13;;
43118;SDS011;28729;49.838;8.650;2023-03-05T23:46:22;12.05;;;5.03;;
43118;SDS011;28729;49.838;8.650;2023-03-05T23:50:26;8.30;;;4.90;;
43118;SDS011;28729;49.838;8.650;2023-03-05T23:54:29;10.75;;;4.30;;
43118;SDS011;28729;49.838;8.650;2023-03-05T23:58:31;10.82;;;4.40;;
